sensor_id;sensor_type;location;lat;lon;timestamp;temperature;humidity
74792;SHT30;63319;46.046;17.802;2023-07-24T00:00:43;28.93;54.80
74792;SHT30;63319;46.046;17.802;2023-07-24T00:03:46;28.93;54.86
74792;SHT30;63319;46.046;17.802;2023-07-24T00:06:49;28.91;54.84
74792;SHT30;63319;46.046;17.802;2023-07-24T00:09:52;28.91;54.83
74792;SHT30;63319;46.046;17.802;2023-07-24T00:12:55;28.92;54.87
74792;SHT30;63319;46.046;17.802;2023-07-24T00:15:58;28.91;54.90
74792;SHT30;63319;46.046;17.802;2023-07-24T00:19:01;28.91;54.89
74792;SHT30;63319;46.046;17.802;2023-07-24T00:22:04;28.91;54.93
74792;SHT30;63319;46.046;17.802;2023-07-24T00:25:07;28.89;54.95
74792;SHT30;63319;46.046;17.802;2023-07-24T00:28:11;28.86;54.95
74792;SHT30;63319;46.046;17.802;2023-07-24T00:31:14;28.86;54.92
74792;SHT30;63319;46.046;17.802;2023-07-24T00:34:19;28.86;54.95
74792;SHT30;63319;46.046;17.802;2023-07-24T00:37:21;28.86;54.93
74792;SHT30;63319;46.046;17.802;2023-07-24T00:40:25;28.86;54.94
74792;SHT30;63319;46.046;17.802;2023-07-24T00:43:27;28.86;55.01
74792;SHT30;63319;46.046;17.802;2023-07-24T00:46:31;28.82;55.01
74792;SHT30;63319;46.046;17.802;2023-07-24T00:49:36;28.82;55.05
74792;SHT30;63319;46.046;17.802;2023-07-24T00:52:39;28.80;54.98
74792;SHT30;63319;46.046;17.802;2023-07-24T00:55:43;28.80;55.03
74792;SHT30;63319;46.046;17.802;2023-07-24T00:58:46;28.80;55.03
74792;SHT30;63319;46.046;17.802;2023-07-24T01:01:50;28.79;55.05
74792;SHT30;63319;46.046;17.802;2023-07-24T01:04:53;28.79;55.08
74792;SHT30;63319;46.046;17.802;2023-07-24T01:07:56;28.80;55.05
74792;SHT30;63319;46.046;17.802;2023-07-24T01:11:11;28.79;55.13
74792;SHT30;63319;46.046;17.802;2023-07-24T01:17:28;28.76;55.11
74792;SHT30;63319;46.046;17.802;2023-07-24T01:20:34;28.78;55.02
74792;SHT30;63319;46.046;17.802;2023-07-24T01:24:23;28.76;55.14
74792;SHT30;63319;46.046;17.802;2023-07-24T01:27:26;28.76;55.17
74792;SHT30;63319;46.046;17.802;2023-07-24T01:30:30;28.75;55.09
74792;SHT30;63319;46.046;17.802;2023-07-24T01:33:33;28.75;55.17
74792;SHT30;63319;46.046;17.802;2023-07-24T01:36:38;28.71;55.09
74792;SHT30;63319;46.046;17.802;2023-07-24T01:39:41;28.74;55.17
74792;SHT30;63319;46.046;17.802;2023-07-24T01:42:46;28.74;55.14
74792;SHT30;63319;46.046;17.802;2023-07-24T01:45:49;28.72;55.16
74792;SHT30;63319;46.046;17.802;2023-07-24T01:48:52;28.71;55.15
74792;SHT30;63319;46.046;17.802;2023-07-24T01:51:56;28.71;55.29
74792;SHT30;63319;46.046;17.802;2023-07-24T01:55:00;28.68;55.24
74792;SHT30;63319;46.046;17.802;2023-07-24T01:58:03;28.69;55.19
74792;SHT30;63319;46.046;17.802;2023-07-24T02:01:06;28.71;55.22
74792;SHT30;63319;46.046;17.802;2023-07-24T02:04:09;28.69;55.22
74792;SHT30;63319;46.046;17.802;2023-07-24T02:07:12;28.68;55.17
74792;SHT30;63319;46.046;17.802;2023-07-24T02:10:15;28.68;55.29
74792;SHT30;63319;46.046;17.802;2023-07-24T02:13:18;28.66;55.23
74792;SHT30;63319;46.046;17.802;2023-07-24T02:16:24;28.65;55.29
74792;SHT30;63319;46.046;17.802;2023-07-24T02:19:27;28.64;55.30
74792;SHT30;63319;46.046;17.802;2023-07-24T02:22:30;28.64;55.34
74792;SHT30;63319;46.046;17.802;2023-07-24T02:25:35;28.64;55.28
74792;SHT30;63319;46.046;17.802;2023-07-24T02:28:38;28.62;55.29
74792;SHT30;63319;46.046;17.802;2023-07-24T02:31:41;28.62;55.31
74792;SHT30;63319;46.046;17.802;2023-07-24T02:34:45;28.61;55.34
74792;SHT30;63319;46.046;17.802;2023-07-24T02:37:48;28.61;55.23
74792;SHT30;63319;46.046;17.802;2023-07-24T02:40:51;28.61;55.38
74792;SHT30;63319;46.046;17.802;2023-07-24T02:43:54;28.59;55.40
74792;SHT30;63319;46.046;17.802;2023-07-24T02:46:57;28.61;55.31
74792;SHT30;63319;46.046;17.802;2023-07-24T02:50:00;28.61;55.37
74792;SHT30;63319;46.046;17.802;2023-07-24T02:53:02;28.56;55.41
74792;SHT30;63319;46.046;17.802;2023-07-24T02:56:06;28.56;55.38
74792;SHT30;63319;46.046;17.802;2023-07-24T02:59:09;28.55;55.35
74792;SHT30;63319;46.046;17.802;2023-07-24T03:02:13;28.55;55.48
74792;SHT30;63319;46.046;17.802;2023-07-24T03:05:16;28.52;55.34
74792;SHT30;63319;46.046;17.802;2023-07-24T03:08:19;28.55;55.37
74792;SHT30;63319;46.046;17.802;2023-07-24T03:11:22;28.54;55.38
74792;SHT30;63319;46.046;17.802;2023-07-24T03:14:25;28.52;55.31
74792;SHT30;63319;46.046;17.802;2023-07-24T03:17:28;28.54;55.31
74792;SHT30;63319;46.046;17.802;2023-07-24T03:20:31;28.54;55.43
74792;SHT30;63319;46.046;17.802;2023-07-24T03:23:34;28.51;55.35
74792;SHT30;63319;46.046;17.802;2023-07-24T03:26:37;28.52;55.38
74792;SHT30;63319;46.046;17.802;2023-07-24T03:29:40;28.49;55.47
74792;SHT30;63319;46.046;17.802;2023-07-24T03:32:43;28.51;55.45
74792;SHT30;63319;46.046;17.802;2023-07-24T03:35:46;28.52;55.37
74792;SHT30;63319;46.046;17.802;2023-07-24T03:38:49;28.48;55.50
74792;SHT30;63319;46.046;17.802;2023-07-24T03:41:53;28.49;55.40
74792;SHT30;63319;46.046;17.802;2023-07-24T03:44:57;28.49;55.37
74792;SHT30;63319;46.046;17.802;2023-07-24T03:48:00;28.48;55.33
74792;SHT30;63319;46.046;17.802;2023-07-24T03:51:03;28.48;55.43
74792;SHT30;63319;46.046;17.802;2023-07-24T03:54:06;28.49;55.41
74792;SHT30;63319;46.046;17.802;2023-07-24T03:57:09;28.49;55.34
74792;SHT30;63319;46.046;17.802;2023-07-24T04:00:12;28.49;55.33
74792;SHT30;63319;46.046;17.802;2023-07-24T04:03:16;28.49;55.42
74792;SHT30;63319;46.046;17.802;2023-07-24T04:06:19;28.47;55.41
74792;SHT30;63319;46.046;17.802;2023-07-24T04:09:22;28.48;55.38
74792;SHT30;63319;46.046;17.802;2023-07-24T04:12:25;28.49;55.24
74792;SHT30;63319;46.046;17.802;2023-07-24T04:15:27;28.51;55.31
74792;SHT30;63319;46.046;17.802;2023-07-24T04:18:30;28.51;55.34
74792;SHT30;63319;46.046;17.802;2023-07-24T04:21:33;28.49;55.25
74792;SHT30;63319;46.046;17.802;2023-07-24T04:24:36;28.49;55.28
74792;SHT30;63319;46.046;17.802;2023-07-24T04:27:39;28.51;55.29
74792;SHT30;63319;46.046;17.802;2023-07-24T04:30:42;28.51;55.23
74792;SHT30;63319;46.046;17.802;2023-07-24T04:33:46;28.52;55.23
74792;SHT30;63319;46.046;17.802;2023-07-24T04:36:48;28.51;55.17
74792;SHT30;63319;46.046;17.802;2023-07-24T04:39:51;28.54;55.09
74792;SHT30;63319;46.046;17.802;2023-07-24T04:42:54;28.51;55.08
74792;SHT30;63319;46.046;17.802;2023-07-24T04:45:57;28.52;55.07
74792;SHT30;63319;46.046;17.802;2023-07-24T04:49:00;28.54;55.07
74792;SHT30;63319;46.046;17.802;2023-07-24T04:52:03;28.55;55.21
74792;SHT30;63319;46.046;17.802;2023-07-24T04:55:06;28.56;55.25
74792;SHT30;63319;46.046;17.802;2023-07-24T04:58:09;28.58;54.93
74792;SHT30;63319;46.046;17.802;2023-07-24T05:01:12;28.59;55.13
74792;SHT30;63319;46.046;17.802;2023-07-24T05:04:15;28.61;55.04
74792;SHT30;63319;46.046;17.802;2023-07-24T05:07:18;28.59;54.99
74792;SHT30;63319;46.046;17.802;2023-07-24T05:10:21;28.65;54.89
74792;SHT30;63319;46.046;17.802;2023-07-24T05:13:25;28.65;54.89
74792;SHT30;63319;46.046;17.802;2023-07-24T05:16:28;28.66;54.88
74792;SHT30;63319;46.046;17.802;2023-07-24T05:19:32;28.69;54.91
74792;SHT30;63319;46.046;17.802;2023-07-24T05:22:34;28.71;54.85
74792;SHT30;63319;46.046;17.802;2023-07-24T05:25:37;28.74;54.94
74792;SHT30;63319;46.046;17.802;2023-07-24T05:28:40;28.76;54.79
74792;SHT30;63319;46.046;17.802;2023-07-24T05:31:43;28.76;54.87
74792;SHT30;63319;46.046;17.802;2023-07-24T05:34:47;28.79;55.00
74792;SHT30;63319;46.046;17.802;2023-07-24T05:37:49;28.80;54.80
74792;SHT30;63319;46.046;17.802;2023-07-24T05:40:59;28.85;54.83
74792;SHT30;63319;46.046;17.802;2023-07-24T05:44:03;28.86;54.83
74792;SHT30;63319;46.046;17.802;2023-07-24T05:47:06;28.88;54.73
74792;SHT30;63319;46.046;17.802;2023-07-24T05:50:09;28.91;54.60
74792;SHT30;63319;46.046;17.802;2023-07-24T05:53:12;28.93;54.52
74792;SHT30;63319;46.046;17.802;2023-07-24T05:56:15;28.99;54.49
74792;SHT30;63319;46.046;17.802;2023-07-24T05:59:18;29.00;54.45
74792;SHT30;63319;46.046;17.802;2023-07-24T06:02:21;29.03;54.32
74792;SHT30;63319;46.046;17.802;2023-07-24T06:05:24;29.07;54.20
74792;SHT30;63319;46.046;17.802;2023-07-24T06:08:27;29.09;54.15
74792;SHT30;63319;46.046;17.802;2023-07-24T06:11:30;29.13;54.02
74792;SHT30;63319;46.046;17.802;2023-07-24T06:14:33;29.17;54.03
74792;SHT30;63319;46.046;17.802;2023-07-24T06:17:36;29.20;54.01
74792;SHT30;63319;46.046;17.802;2023-07-24T06:20:39;29.22;53.87
74792;SHT30;63319;46.046;17.802;2023-07-24T06:23:42;29.24;53.79
74792;SHT30;63319;46.046;17.802;2023-07-24T06:26:44;29.29;53.82
74792;SHT30;63319;46.046;17.802;2023-07-24T06:29:48;29.30;53.68
74792;SHT30;63319;46.046;17.802;2023-07-24T06:32:57;29.31;53.64
74792;SHT30;63319;46.046;17.802;2023-07-24T06:36:00;29.38;53.49
74792;SHT30;63319;46.046;17.802;2023-07-24T06:39:03;29.38;53.49
74792;SHT30;63319;46.046;17.802;2023-07-24T06:42:06;29.44;53.33
74792;SHT30;63319;46.046;17.802;2023-07-24T06:45:09;29.47;53.19
74792;SHT30;63319;46.046;17.802;2023-07-24T06:48:12;29.53;53.28
74792;SHT30;63319;46.046;17.802;2023-07-24T06:51:15;29.55;53.02
74792;SHT30;63319;46.046;17.802;2023-07-24T06:54:18;29.60;52.93
74792;SHT30;63319;46.046;17.802;2023-07-24T06:57:21;29.64;52.90
74792;SHT30;63319;46.046;17.802;2023-07-24T07:00:24;29.65;52.80
74792;SHT30;63319;46.046;17.802;2023-07-24T07:03:27;29.71;52.66
74792;SHT30;63319;46.046;17.802;2023-07-24T07:06:30;29.72;52.54
74792;SHT30;63319;46.046;17.802;2023-07-24T07:09:33;29.79;52.45
74792;SHT30;63319;46.046;17.802;2023-07-24T07:12:37;29.85;52.62
74792;SHT30;63319;46.046;17.802;2023-07-24T07:15:41;29.91;52.48
74792;SHT30;63319;46.046;17.802;2023-07-24T07:18:48;29.95;52.17
74792;SHT30;63319;46.046;17.802;2023-07-24T07:21:53;29.97;52.11
74792;SHT30;63319;46.046;17.802;2023-07-24T07:24:57;29.95;52.11
74792;SHT30;63319;46.046;17.802;2023-07-24T07:28:10;29.97;52.11
74792;SHT30;63319;46.046;17.802;2023-07-24T07:31:14;30.04;52.10
74792;SHT30;63319;46.046;17.802;2023-07-24T07:34:17;30.04;52.08
74792;SHT30;63319;46.046;17.802;2023-07-24T07:37:20;30.08;52.07
74792;SHT30;63319;46.046;17.802;2023-07-24T07:40:25;30.12;51.99
74792;SHT30;63319;46.046;17.802;2023-07-24T07:43:31;30.13;52.03
74792;SHT30;63319;46.046;17.802;2023-07-24T07:46:35;30.16;51.96
74792;SHT30;63319;46.046;17.802;2023-07-24T07:49:39;30.22;51.87
74792;SHT30;63319;46.046;17.802;2023-07-24T07:52:44;30.25;51.77
74792;SHT30;63319;46.046;17.802;2023-07-24T07:55:55;30.26;51.71
74792;SHT30;63319;46.046;17.802;2023-07-24T07:59:02;30.30;51.70
74792;SHT30;63319;46.046;17.802;2023-07-24T08:02:06;30.32;51.67
74792;SHT30;63319;46.046;17.802;2023-07-24T08:05:11;30.40;51.44
74792;SHT30;63319;46.046;17.802;2023-07-24T08:08:31;30.50;51.27
74792;SHT30;63319;46.046;17.802;2023-07-24T08:11:47;30.55;51.12
74792;SHT30;63319;46.046;17.802;2023-07-24T08:15:00;30.61;50.97
74792;SHT30;63319;46.046;17.802;2023-07-24T08:18:06;30.67;50.85
74792;SHT30;63319;46.046;17.802;2023-07-24T08:21:10;30.76;50.69
74792;SHT30;63319;46.046;17.802;2023-07-24T08:24:13;30.85;50.49
74792;SHT30;63319;46.046;17.802;2023-07-24T08:27:17;30.95;50.31
74792;SHT30;63319;46.046;17.802;2023-07-24T08:30:21;31.04;50.06
74792;SHT30;63319;46.046;17.802;2023-07-24T08:33:24;31.14;49.81
74792;SHT30;63319;46.046;17.802;2023-07-24T08:36:27;31.24;49.62
74792;SHT30;63319;46.046;17.802;2023-07-24T08:39:31;31.36;49.40
74792;SHT30;63319;46.046;17.802;2023-07-24T08:42:34;31.50;48.97
74792;SHT30;63319;46.046;17.802;2023-07-24T08:45:41;31.70;48.63
74792;SHT30;63319;46.046;17.802;2023-07-24T08:48:49;31.89;48.12
74792;SHT30;63319;46.046;17.802;2023-07-24T08:51:53;32.08;47.79
74792;SHT30;63319;46.046;17.802;2023-07-24T08:54:58;32.29;47.38
74792;SHT30;63319;46.046;17.802;2023-07-24T08:58:06;32.49;46.91
74792;SHT30;63319;46.046;17.802;2023-07-24T09:01:13;32.62;46.60
74792;SHT30;63319;46.046;17.802;2023-07-24T09:04:21;32.79;46.13
74792;SHT30;63319;46.046;17.802;2023-07-24T09:07:25;32.90;45.91
74792;SHT30;63319;46.046;17.802;2023-07-24T09:10:28;32.98;45.61
74792;SHT30;63319;46.046;17.802;2023-07-24T09:13:32;33.03;45.47
74792;SHT30;63319;46.046;17.802;2023-07-24T09:16:35;33.13;45.26
74792;SHT30;63319;46.046;17.802;2023-07-24T09:19:38;33.17;45.03
74792;SHT30;63319;46.046;17.802;2023-07-24T09:22:52;33.24;45.03
74792;SHT30;63319;46.046;17.802;2023-07-24T09:26:15;33.31;44.82
74792;SHT30;63319;46.046;17.802;2023-07-24T09:29:19;33.33;44.81
74792;SHT30;63319;46.046;17.802;2023-07-24T09:32:27;33.37;44.67
74792;SHT30;63319;46.046;17.802;2023-07-24T09:35:31;33.44;44.58
74792;SHT30;63319;46.046;17.802;2023-07-24T09:38:36;33.51;44.47
74792;SHT30;63319;46.046;17.802;2023-07-24T09:41:39;33.54;44.35
74792;SHT30;63319;46.046;17.802;2023-07-24T09:44:43;33.70;44.03
74792;SHT30;63319;46.046;17.802;2023-07-24T09:47:46;33.80;43.91
74792;SHT30;63319;46.046;17.802;2023-07-24T09:51:00;33.88;43.80
74792;SHT30;63319;46.046;17.802;2023-07-24T09:54:06;33.97;43.66
74792;SHT30;63319;46.046;17.802;2023-07-24T09:57:13;34.01;43.45
74792;SHT30;63319;46.046;17.802;2023-07-24T10:00:24;34.05;43.48
74792;SHT30;63319;46.046;17.802;2023-07-24T10:03:27;34.01;43.48
74792;SHT30;63319;46.046;17.802;2023-07-24T10:06:30;33.98;43.64
74792;SHT30;63319;46.046;17.802;2023-07-24T10:09:35;34.06;43.33
74792;SHT30;63319;46.046;17.802;2023-07-24T10:12:39;34.12;43.46
74792;SHT30;63319;46.046;17.802;2023-07-24T10:15:44;34.19;43.27
74792;SHT30;63319;46.046;17.802;2023-07-24T10:18:47;34.15;43.45
74792;SHT30;63319;46.046;17.802;2023-07-24T10:21:54;34.10;43.44
74792;SHT30;63319;46.046;17.802;2023-07-24T10:25:09;34.08;43.35
74792;SHT30;63319;46.046;17.802;2023-07-24T10:28:13;34.16;43.27
74792;SHT30;63319;46.046;17.802;2023-07-24T10:31:21;34.12;43.47
74792;SHT30;63319;46.046;17.802;2023-07-24T10:34:36;34.13;43.40
74792;SHT30;63319;46.046;17.802;2023-07-24T10:37:39;34.15;43.26
74792;SHT30;63319;46.046;17.802;2023-07-24T10:40:45;34.06;43.50
74792;SHT30;63319;46.046;17.802;2023-07-24T10:43:51;33.88;43.82
74792;SHT30;63319;46.046;17.802;2023-07-24T10:46:56;33.99;43.53
74792;SHT30;63319;46.046;17.802;2023-07-24T10:50:03;34.02;43.62
74792;SHT30;63319;46.046;17.802;2023-07-24T10:53:07;34.05;43.32
74792;SHT30;63319;46.046;17.802;2023-07-24T10:56:10;34.13;43.34
74792;SHT30;63319;46.046;17.802;2023-07-24T10:59:13;34.12;43.29
74792;SHT30;63319;46.046;17.802;2023-07-24T11:02:17;34.22;43.06
74792;SHT30;63319;46.046;17.802;2023-07-24T11:05:29;34.16;43.31
74792;SHT30;63319;46.046;17.802;2023-07-24T11:08:32;34.20;43.22
74792;SHT30;63319;46.046;17.802;2023-07-24T11:11:36;34.32;43.07
74792;SHT30;63319;46.046;17.802;2023-07-24T11:14:52;34.35;42.97
74792;SHT30;63319;46.046;17.802;2023-07-24T11:18:01;34.33;42.92
74792;SHT30;63319;46.046;17.802;2023-07-24T11:21:05;34.35;42.95
74792;SHT30;63319;46.046;17.802;2023-07-24T11:24:12;34.45;42.90
74792;SHT30;63319;46.046;17.802;2023-07-24T11:27:16;34.39;42.97
74792;SHT30;63319;46.046;17.802;2023-07-24T11:30:22;34.28;43.05
74792;SHT30;63319;46.046;17.802;2023-07-24T11:33:26;34.16;43.36
74792;SHT30;63319;46.046;17.802;2023-07-24T11:36:29;34.12;43.85
74792;SHT30;63319;46.046;17.802;2023-07-24T11:39:32;34.08;43.65
74792;SHT30;63319;46.046;17.802;2023-07-24T11:42:43;34.18;43.42
74792;SHT30;63319;46.046;17.802;2023-07-24T11:45:47;34.04;43.73
74792;SHT30;63319;46.046;17.802;2023-07-24T11:48:56;34.05;43.64
74792;SHT30;63319;46.046;17.802;2023-07-24T11:52:09;33.91;43.97
74792;SHT30;63319;46.046;17.802;2023-07-24T11:55:18;33.92;44.01
74792;SHT30;63319;46.046;17.802;2023-07-24T11:58:22;33.82;44.19
74792;SHT30;63319;46.046;17.802;2023-07-24T12:01:25;33.67;44.52
74792;SHT30;63319;46.046;17.802;2023-07-24T12:04:30;33.60;44.64
74792;SHT30;63319;46.046;17.802;2023-07-24T12:07:35;33.40;45.16
74792;SHT30;63319;46.046;17.802;2023-07-24T12:10:38;33.27;45.39
74792;SHT30;63319;46.046;17.802;2023-07-24T12:13:42;33.22;45.41
74792;SHT30;63319;46.046;17.802;2023-07-24T12:16:47;33.14;45.47
74792;SHT30;63319;46.046;17.802;2023-07-24T12:19:50;33.17;45.57
74792;SHT30;63319;46.046;17.802;2023-07-24T12:22:56;33.07;45.65
74792;SHT30;63319;46.046;17.802;2023-07-24T12:26:00;33.07;45.79
74792;SHT30;63319;46.046;17.802;2023-07-24T12:29:02;32.95;46.11
74792;SHT30;63319;46.046;17.802;2023-07-24T12:32:06;32.89;46.21
74792;SHT30;63319;46.046;17.802;2023-07-24T12:35:10;32.85;46.31
74792;SHT30;63319;46.046;17.802;2023-07-24T12:38:14;32.83;46.39
74792;SHT30;63319;46.046;17.802;2023-07-24T12:41:17;32.76;46.44
74792;SHT30;63319;46.046;17.802;2023-07-24T12:44:20;32.71;46.66
74792;SHT30;63319;46.046;17.802;2023-07-24T12:47:23;32.71;46.58
74792;SHT30;63319;46.046;17.802;2023-07-24T12:50:27;32.59;46.95
74792;SHT30;63319;46.046;17.802;2023-07-24T12:53:29;32.49;47.24
74792;SHT30;63319;46.046;17.802;2023-07-24T12:56:46;32.51;46.93
74792;SHT30;63319;46.046;17.802;2023-07-24T12:59:49;32.38;47.38
74792;SHT30;63319;46.046;17.802;2023-07-24T13:02:52;32.42;47.29
74792;SHT30;63319;46.046;17.802;2023-07-24T13:06:01;32.32;47.43
74792;SHT30;63319;46.046;17.802;2023-07-24T13:09:05;32.28;47.58
74792;SHT30;63319;46.046;17.802;2023-07-24T13:12:08;32.24;47.88
74792;SHT30;63319;46.046;17.802;2023-07-24T13:15:11;32.18;47.85
74792;SHT30;63319;46.046;17.802;2023-07-24T13:18:16;32.13;47.87
74792;SHT30;63319;46.046;17.802;2023-07-24T13:21:30;32.10;47.96
74792;SHT30;63319;46.046;17.802;2023-07-24T13:24:33;31.97;48.32
74792;SHT30;63319;46.046;17.802;2023-07-24T13:27:36;31.98;48.35
74792;SHT30;63319;46.046;17.802;2023-07-24T13:30:45;31.91;48.34
74792;SHT30;63319;46.046;17.802;2023-07-24T13:33:52;31.89;48.48
74792;SHT30;63319;46.046;17.802;2023-07-24T13:36:56;31.91;48.26
74792;SHT30;63319;46.046;17.802;2023-07-24T13:39:59;31.87;48.41
74792;SHT30;63319;46.046;17.802;2023-07-24T13:43:03;31.87;48.48
74792;SHT30;63319;46.046;17.802;2023-07-24T13:46:06;31.89;48.46
74792;SHT30;63319;46.046;17.802;2023-07-24T13:49:11;31.89;48.49
74792;SHT30;63319;46.046;17.802;2023-07-24T13:52:14;31.86;48.46
74792;SHT30;63319;46.046;17.802;2023-07-24T13:55:17;31.81;48.67
74792;SHT30;63319;46.046;17.802;2023-07-24T13:58:20;31.81;48.59
74792;SHT30;63319;46.046;17.802;2023-07-24T14:01:23;31.74;48.73
74792;SHT30;63319;46.046;17.802;2023-07-24T14:04:29;31.72;48.80
74792;SHT30;63319;46.046;17.802;2023-07-24T14:07:32;31.69;48.85
74792;SHT30;63319;46.046;17.802;2023-07-24T14:10:36;31.67;48.91
74792;SHT30;63319;46.046;17.802;2023-07-24T14:13:40;31.60;49.04
74792;SHT30;63319;46.046;17.802;2023-07-24T14:16:44;31.59;49.11
74792;SHT30;63319;46.046;17.802;2023-07-24T14:19:47;31.59;49.16
74792;SHT30;63319;46.046;17.802;2023-07-24T14:22:50;31.54;49.23
74792;SHT30;63319;46.046;17.802;2023-07-24T14:25:53;31.52;49.30
74792;SHT30;63319;46.046;17.802;2023-07-24T14:28:57;31.45;49.42
74792;SHT30;63319;46.046;17.802;2023-07-24T14:32:00;31.43;49.60
74792;SHT30;63319;46.046;17.802;2023-07-24T14:35:05;31.41;49.58
74792;SHT30;63319;46.046;17.802;2023-07-24T14:38:08;31.36;49.78
74792;SHT30;63319;46.046;17.802;2023-07-24T14:41:14;31.32;49.92
74792;SHT30;63319;46.046;17.802;2023-07-24T14:44:18;31.28;49.89
74792;SHT30;63319;46.046;17.802;2023-07-24T14:47:22;31.25;49.95
74792;SHT30;63319;46.046;17.802;2023-07-24T14:50:25;31.25;50.04
74792;SHT30;63319;46.046;17.802;2023-07-24T14:53:28;31.22;50.13
74792;SHT30;63319;46.046;17.802;2023-07-24T14:56:32;31.19;50.14
74792;SHT30;63319;46.046;17.802;2023-07-24T14:59:55;31.14;50.30
74792;SHT30;63319;46.046;17.802;2023-07-24T15:03:01;31.14;50.40
74792;SHT30;63319;46.046;17.802;2023-07-24T15:06:05;31.15;50.31
74792;SHT30;63319;46.046;17.802;2023-07-24T15:09:12;31.10;50.40
74792;SHT30;63319;46.046;17.802;2023-07-24T15:12:18;31.10;50.41
74792;SHT30;63319;46.046;17.802;2023-07-24T15:15:24;31.07;50.44
74792;SHT30;63319;46.046;17.802;2023-07-24T15:18:27;31.05;50.49
74792;SHT30;63319;46.046;17.802;2023-07-24T15:21:31;31.07;50.64
74792;SHT30;63319;46.046;17.802;2023-07-24T15:24:39;31.02;50.73
74792;SHT30;63319;46.046;17.802;2023-07-24T15:27:49;30.99;50.79
74792;SHT30;63319;46.046;17.802;2023-07-24T15:30:53;30.98;50.82
74792;SHT30;63319;46.046;17.802;2023-07-24T15:33:56;30.99;50.74
74792;SHT30;63319;46.046;17.802;2023-07-24T15:37:00;30.95;50.75
74792;SHT30;63319;46.046;17.802;2023-07-24T15:40:03;30.95;50.79
74792;SHT30;63319;46.046;17.802;2023-07-24T15:43:07;30.96;50.69
74792;SHT30;63319;46.046;17.802;2023-07-24T15:46:10;30.96;50.77
74792;SHT30;63319;46.046;17.802;2023-07-24T15:49:13;30.92;50.83
74792;SHT30;63319;46.046;17.802;2023-07-24T15:52:19;30.92;50.86
74792;SHT30;63319;46.046;17.802;2023-07-24T15:55:22;30.91;50.94
74792;SHT30;63319;46.046;17.802;2023-07-24T15:58:27;30.91;50.95
74792;SHT30;63319;46.046;17.802;2023-07-24T16:01:30;30.88;51.02
74792;SHT30;63319;46.046;17.802;2023-07-24T16:04:33;30.88;50.94
74792;SHT30;63319;46.046;17.802;2023-07-24T16:07:39;30.87;51.04
74792;SHT30;63319;46.046;17.802;2023-07-24T16:10:42;30.87;51.12
74792;SHT30;63319;46.046;17.802;2023-07-24T16:13:45;30.84;51.09
74792;SHT30;63319;46.046;17.802;2023-07-24T16:16:48;30.83;51.14
74792;SHT30;63319;46.046;17.802;2023-07-24T16:19:51;30.80;51.23
74792;SHT30;63319;46.046;17.802;2023-07-24T16:22:54;30.78;51.18
74792;SHT30;63319;46.046;17.802;2023-07-24T16:25:57;30.77;51.26
74792;SHT30;63319;46.046;17.802;2023-07-24T16:29:04;30.77;51.21
74792;SHT30;63319;46.046;17.802;2023-07-24T16:32:07;30.74;51.32
74792;SHT30;63319;46.046;17.802;2023-07-24T16:35:10;30.70;51.43
74792;SHT30;63319;46.046;17.802;2023-07-24T16:38:13;30.71;51.39
74792;SHT30;63319;46.046;17.802;2023-07-24T16:41:18;30.71;51.37
74792;SHT30;63319;46.046;17.802;2023-07-24T16:44:22;30.68;51.44
74792;SHT30;63319;46.046;17.802;2023-07-24T16:47:35;30.66;51.51
74792;SHT30;63319;46.046;17.802;2023-07-24T16:50:38;30.66;51.53
74792;SHT30;63319;46.046;17.802;2023-07-24T16:53:42;30.64;51.54
74792;SHT30;63319;46.046;17.802;2023-07-24T16:56:47;30.64;51.57
74792;SHT30;63319;46.046;17.802;2023-07-24T16:59:50;30.66;51.54
74792;SHT30;63319;46.046;17.802;2023-07-24T17:02:55;30.64;51.76
74792;SHT30;63319;46.046;17.802;2023-07-24T17:05:59;30.61;51.70
74792;SHT30;63319;46.046;17.802;2023-07-24T17:09:02;30.59;51.71
74792;SHT30;63319;46.046;17.802;2023-07-24T17:12:16;30.55;51.82
74792;SHT30;63319;46.046;17.802;2023-07-24T17:15:20;30.59;51.67
74792;SHT30;63319;46.046;17.802;2023-07-24T17:18:24;30.56;51.76
74792;SHT30;63319;46.046;17.802;2023-07-24T17:21:27;30.53;51.82
74792;SHT30;63319;46.046;17.802;2023-07-24T17:24:32;30.48;51.89
74792;SHT30;63319;46.046;17.802;2023-07-24T17:27:37;30.52;51.88
74792;SHT30;63319;46.046;17.802;2023-07-24T17:30:41;30.48;51.94
74792;SHT30;63319;46.046;17.802;2023-07-24T17:33:47;30.50;51.95
74792;SHT30;63319;46.046;17.802;2023-07-24T17:36:51;30.47;51.95
74792;SHT30;63319;46.046;17.802;2023-07-24T17:39:54;30.43;52.04
74792;SHT30;63319;46.046;17.802;2023-07-24T17:42:58;30.44;52.01
74792;SHT30;63319;46.046;17.802;2023-07-24T17:46:01;30.41;52.07
74792;SHT30;63319;46.046;17.802;2023-07-24T17:49:07;30.39;52.10
74792;SHT30;63319;46.046;17.802;2023-07-24T17:52:10;30.37;52.22
74792;SHT30;63319;46.046;17.802;2023-07-24T17:55:14;30.39;52.15
74792;SHT30;63319;46.046;17.802;2023-07-24T17:58:21;30.37;52.26
74792;SHT30;63319;46.046;17.802;2023-07-24T18:01:30;30.37;52.26
74792;SHT30;63319;46.046;17.802;2023-07-24T18:04:34;30.36;52.20
74792;SHT30;63319;46.046;17.802;2023-07-24T18:07:39;30.33;52.24
74792;SHT30;63319;46.046;17.802;2023-07-24T18:10:43;30.30;52.35
74792;SHT30;63319;46.046;17.802;2023-07-24T18:13:46;30.29;52.44
74792;SHT30;63319;46.046;17.802;2023-07-24T18:16:49;30.29;52.46
74792;SHT30;63319;46.046;17.802;2023-07-24T18:19:57;30.29;52.46
74792;SHT30;63319;46.046;17.802;2023-07-24T18:23:00;30.27;52.47
74792;SHT30;63319;46.046;17.802;2023-07-24T18:26:03;30.26;52.59
74792;SHT30;63319;46.046;17.802;2023-07-24T18:29:07;30.27;52.60
74792;SHT30;63319;46.046;17.802;2023-07-24T18:32:10;30.23;52.58
74792;SHT30;63319;46.046;17.802;2023-07-24T18:35:13;30.23;52.61
74792;SHT30;63319;46.046;17.802;2023-07-24T18:38:16;30.23;52.73
74792;SHT30;63319;46.046;17.802;2023-07-24T18:41:20;30.20;52.71
74792;SHT30;63319;46.046;17.802;2023-07-24T18:44:26;30.16;52.76
74792;SHT30;63319;46.046;17.802;2023-07-24T18:47:32;30.18;52.75
74792;SHT30;63319;46.046;17.802;2023-07-24T18:50:37;30.18;52.78
74792;SHT30;63319;46.046;17.802;2023-07-24T18:53:41;30.16;52.74
74792;SHT30;63319;46.046;17.802;2023-07-24T18:56:44;30.15;52.85
74792;SHT30;63319;46.046;17.802;2023-07-24T18:59:48;30.15;52.85
74792;SHT30;63319;46.046;17.802;2023-07-24T19:02:51;30.16;52.81
74792;SHT30;63319;46.046;17.802;2023-07-24T19:05:58;30.13;52.83
74792;SHT30;63319;46.046;17.802;2023-07-24T19:09:04;30.12;52.88